sensor_id;sensor_type;location;lat;lon;timestamp;P1;durP1;ratioP1;P2;durP2;ratioP2
48667;SDS011;34453;52.198;5.004;2023-08-08T00:02:17;7.38;;;4.93;;
48667;SDS011;34453;52.198;5.004;2023-08-08T00:04:43;16.27;;;4.43;;
48667;SDS011;34453;52.198;5.004;2023-08-08T00:07:08;5.15;;;3.90;;
48667;SDS011;34453;52.198;5.004;2023-08-08T00:09:34;16.48;;;4.80;;
48667;SDS011;34453;52.198;5.004;2023-08-08T00:11:59;14.32;;;4.70;;
48667;SDS011;34453;52.198;5.004;2023-08-08T00:14:25;10.65;;;5.00;;
48667;SDS011;34453;52.198;5.004;2023-08-08T00:16:50;18.85;;;5.65;;
48667;SDS011;34453;52.198;5.004;2023-08-08T00:19:16;13.63;;;4.20;;
48667;SDS011;34453;52.198;5.004;2023-08-08T00:21:41;13.05;;;4.47;;
48667;SDS011;34453;52.198;5.004;2023-08-08T00:24:06;11.45;;;4.35;;
48667;SDS011;34453;52.198;5.004;2023-08-08T00:26:32;9.95;;;4.63;;
48667;SDS011;34453;52.198;5.004;2023-08-08T00:28:58;19.98;;;4.68;;
48667;SDS011;34453;52.198;5.004;2023-08-08T00:31:23;15.20;;;4.97;;
48667;SDS011;34453;52.198;5.004;2023-08-08T00:33:48;7.82;;;3.92;;
48667;SDS011;34453;52.198;5.004;2023-08-08T00:36:14;10.05;;;4.60;;
48667;SDS011;34453;52.198;5.004;2023-08-08T00:38:39;12.32;;;5.47;;
48667;SDS011;34453;52.198;5.004;2023-08-08T00:41:05;12.23;;;4.22;;
48667;SDS011;34453;52.198;5.004;2023-08-08T00:43:30;15.10;;;4.30;;
48667;SDS011;34453;52.198;5.004;2023-08-08T00:45:55;12.13;;;4.63;;
48667;SDS011;34453;52.198;5.004;2023-08-08T00:48:22;18.73;;;5.22;;
48667;SDS011;34453;52.198;5.004;2023-08-08T00:50:48;9.88;;;4.20;;
48667;SDS011;34453;52.198;5.004;2023-08-08T00:53:15;16.75;;;4.50;;
48667;SDS011;34453;52.198;5.004;2023-08-08T00:55:40;12.10;;;4.38;;
48667;SDS011;34453;52.198;5.004;2023-08-08T00:58:06;8.43;;;3.63;;
48667;SDS011;34453;52.198;5.004;2023-08-08T01:00:32;10.75;;;4.05;;
48667;SDS011;34453;52.198;5.004;2023-08-08T01:02:57;12.82;;;3.88;;
48667;SDS011;34453;52.198;5.004;2023-08-08T01:05:23;10.57;;;2.83;;
48667;SDS011;34453;52.198;5.004;2023-08-08T01:08:11;14.65;;;3.05;;
48667;SDS011;34453;52.198;5.004;2023-08-08T01:10:39;15.15;;;3.88;;
48667;SDS011;34453;52.198;5.004;2023-08-08T01:13:24;8.07;;;3.10;;
48667;SDS011;34453;52.198;5.004;2023-08-08T01:15:51;11.18;;;3.00;;
48667;SDS011;34453;52.198;5.004;2023-08-08T01:18:18;9.43;;;3.25;;
48667;SDS011;34453;52.198;5.004;2023-08-08T01:20:44;14.13;;;3.13;;
48667;SDS011;34453;52.198;5.004;2023-08-08T01:23:16;17.95;;;2.83;;
48667;SDS011;34453;52.198;5.004;2023-08-08T01:25:48;9.30;;;2.50;;
48667;SDS011;34453;52.198;5.004;2023-08-08T01:28:14;10.63;;;3.60;;
48667;SDS011;34453;52.198;5.004;2023-08-08T01:30:40;10.20;;;2.95;;
48667;SDS011;34453;52.198;5.004;2023-08-08T01:33:06;13.68;;;3.25;;
48667;SDS011;34453;52.198;5.004;2023-08-08T01:35:32;8.60;;;3.00;;
48667;SDS011;34453;52.198;5.004;2023-08-08T01:38:07;5.70;;;2.92;;
48667;SDS011;34453;52.198;5.004;2023-08-08T01:40:41;10.75;;;3.63;;
48667;SDS011;34453;52.198;5.004;2023-08-08T01:43:08;12.73;;;3.03;;
48667;SDS011;34453;52.198;5.004;2023-08-08T01:45:34;12.10;;;3.33;;
48667;SDS011;34453;52.198;5.004;2023-08-08T01:48:05;7.40;;;2.60;;
48667;SDS011;34453;52.198;5.004;2023-08-08T01:50:34;5.90;;;2.55;;
48667;SDS011;34453;52.198;5.004;2023-08-08T01:53:00;3.65;;;3.28;;
48667;SDS011;34453;52.198;5.004;2023-08-08T01:55:26;11.85;;;2.90;;
48667;SDS011;34453;52.198;5.004;2023-08-08T01:57:52;5.97;;;2.33;;
48667;SDS011;34453;52.198;5.004;2023-08-08T02:00:17;6.22;;;2.50;;
48667;SDS011;34453;52.198;5.004;2023-08-08T02:02:43;7.45;;;2.65;;
48667;SDS011;34453;52.198;5.004;2023-08-08T02:05:08;7.20;;;2.72;;
48667;SDS011;34453;52.198;5.004;2023-08-08T02:07:34;2.25;;;2.05;;
48667;SDS011;34453;52.198;5.004;2023-08-08T02:09:59;4.53;;;2.53;;
48667;SDS011;34453;52.198;5.004;2023-08-08T02:12:24;2.55;;;2.22;;
48667;SDS011;34453;52.198;5.004;2023-08-08T02:14:50;5.38;;;2.88;;
48667;SDS011;34453;52.198;5.004;2023-08-08T02:17:16;3.55;;;1.98;;
48667;SDS011;34453;52.198;5.004;2023-08-08T02:19:41;2.50;;;2.05;;
48667;SDS011;34453;52.198;5.004;2023-08-08T02:22:07;3.95;;;2.13;;
48667;SDS011;34453;52.198;5.004;2023-08-08T02:24:32;6.32;;;2.17;;
48667;SDS011;34453;52.198;5.004;2023-08-08T02:26:57;1.98;;;1.67;;
48667;SDS011;34453;52.198;5.004;2023-08-08T02:29:23;6.18;;;1.85;;
48667;SDS011;34453;52.198;5.004;2023-08-08T02:31:48;4.43;;;2.08;;
48667;SDS011;34453;52.198;5.004;2023-08-08T02:34:14;6.53;;;2.08;;
48667;SDS011;34453;52.198;5.004;2023-08-08T02:36:39;4.32;;;2.00;;
48667;SDS011;34453;52.198;5.004;2023-08-08T02:39:05;8.02;;;2.45;;
48667;SDS011;34453;52.198;5.004;2023-08-08T02:41:30;4.50;;;2.03;;
48667;SDS011;34453;52.198;5.004;2023-08-08T02:43:56;2.55;;;1.52;;
48667;SDS011;34453;52.198;5.004;2023-08-08T02:46:21;4.18;;;1.98;;
48667;SDS011;34453;52.198;5.004;2023-08-08T02:48:46;7.15;;;2.42;;
48667;SDS011;34453;52.198;5.004;2023-08-08T02:51:12;2.75;;;1.80;;
48667;SDS011;34453;52.198;5.004;2023-08-08T02:53:37;4.10;;;2.17;;
48667;SDS011;34453;52.198;5.004;2023-08-08T02:56:03;1.55;;;1.45;;
48667;SDS011;34453;52.198;5.004;2023-08-08T02:58:28;7.40;;;2.20;;
48667;SDS011;34453;52.198;5.004;2023-08-08T03:00:54;3.17;;;1.90;;
48667;SDS011;34453;52.198;5.004;2023-08-08T03:03:19;5.25;;;2.13;;
48667;SDS011;34453;52.198;5.004;2023-08-08T03:05:45;4.18;;;1.80;;
48667;SDS011;34453;52.198;5.004;2023-08-08T03:08:11;4.72;;;1.48;;
48667;SDS011;34453;52.198;5.004;2023-08-08T03:10:36;4.25;;;1.70;;
48667;SDS011;34453;52.198;5.004;2023-08-08T03:13:02;3.85;;;1.55;;
48667;SDS011;34453;52.198;5.004;2023-08-08T03:15:27;4.30;;;1.80;;
48667;SDS011;34453;52.198;5.004;2023-08-08T03:17:53;2.95;;;1.60;;
48667;SDS011;34453;52.198;5.004;2023-08-08T03:20:18;8.40;;;1.58;;
48667;SDS011;34453;52.198;5.004;2023-08-08T03:22:44;3.70;;;1.63;;
48667;SDS011;34453;52.198;5.004;2023-08-08T03:25:09;1.83;;;1.73;;
48667;SDS011;34453;52.198;5.004;2023-08-08T03:27:35;3.58;;;1.45;;
48667;SDS011;34453;52.198;5.004;2023-08-08T03:30:00;2.70;;;1.98;;
48667;SDS011;34453;52.198;5.004;2023-08-08T03:32:26;5.50;;;1.88;;
48667;SDS011;34453;52.198;5.004;2023-08-08T03:34:53;3.30;;;1.67;;
48667;SDS011;34453;52.198;5.004;2023-08-08T03:37:18;7.03;;;1.83;;
48667;SDS011;34453;52.198;5.004;2023-08-08T03:39:44;7.43;;;2.22;;
48667;SDS011;34453;52.198;5.004;2023-08-08T03:42:09;2.55;;;1.67;;
48667;SDS011;34453;52.198;5.004;2023-08-08T03:44:35;5.53;;;1.67;;
48667;SDS011;34453;52.198;5.004;2023-08-08T03:47:00;2.53;;;1.95;;
48667;SDS011;34453;52.198;5.004;2023-08-08T03:49:25;4.28;;;1.67;;
48667;SDS011;34453;52.198;5.004;2023-08-08T03:51:51;7.35;;;1.70;;
48667;SDS011;34453;52.198;5.004;2023-08-08T03:54:17;7.68;;;1.27;;
48667;SDS011;34453;52.198;5.004;2023-08-08T03:56:43;3.92;;;1.45;;
48667;SDS011;34453;52.198;5.004;2023-08-08T03:59:08;9.05;;;1.73;;
48667;SDS011;34453;52.198;5.004;2023-08-08T04:01:35;3.13;;;1.70;;
48667;SDS011;34453;52.198;5.004;2023-08-08T04:04:00;4.65;;;2.20;;
48667;SDS011;34453;52.198;5.004;2023-08-08T04:06:26;9.98;;;1.55;;
48667;SDS011;34453;52.198;5.004;2023-08-08T04:08:51;2.85;;;1.35;;
48667;SDS011;34453;52.198;5.004;2023-08-08T04:11:17;6.82;;;1.55;;
48667;SDS011;34453;52.198;5.004;2023-08-08T04:13:42;5.35;;;1.35;;
48667;SDS011;34453;52.198;5.004;2023-08-08T04:16:07;5.68;;;1.58;;
48667;SDS011;34453;52.198;5.004;2023-08-08T04:18:33;4.47;;;1.50;;
48667;SDS011;34453;52.198;5.004;2023-08-08T04:20:58;4.43;;;2.13;;
48667;SDS011;34453;52.198;5.004;2023-08-08T04:23:24;2.67;;;1.50;;
48667;SDS011;34453;52.198;5.004;2023-08-08T04:25:51;6.30;;;1.50;;
48667;SDS011;34453;52.198;5.004;2023-08-08T04:28:17;5.30;;;1.67;;
48667;SDS011;34453;52.198;5.004;2023-08-08T04:30:42;2.15;;;1.45;;
48667;SDS011;34453;52.198;5.004;2023-08-08T04:33:07;4.18;;;1.25;;
48667;SDS011;34453;52.198;5.004;2023-08-08T04:35:33;4.40;;;1.85;;
48667;SDS011;34453;52.198;5.004;2023-08-08T04:37:58;10.30;;;1.63;;
48667;SDS011;34453;52.198;5.004;2023-08-08T04:40:24;6.35;;;1.48;;
48667;SDS011;34453;52.198;5.004;2023-08-08T04:42:49;7.22;;;1.30;;
48667;SDS011;34453;52.198;5.004;2023-08-08T04:45:15;2.47;;;1.23;;
48667;SDS011;34453;52.198;5.004;2023-08-08T04:47:41;12.10;;;1.45;;
48667;SDS011;34453;52.198;5.004;2023-08-08T04:50:06;8.30;;;1.60;;
48667;SDS011;34453;52.198;5.004;2023-08-08T04:52:32;10.90;;;1.58;;
48667;SDS011;34453;52.198;5.004;2023-08-08T04:54:57;1.92;;;1.02;;
48667;SDS011;34453;52.198;5.004;2023-08-08T04:57:23;1.27;;;1.17;;
48667;SDS011;34453;52.198;5.004;2023-08-08T04:59:48;2.03;;;1.15;;
48667;SDS011;34453;52.198;5.004;2023-08-08T05:02:14;4.32;;;1.40;;
48667;SDS011;34453;52.198;5.004;2023-08-08T05:04:40;9.85;;;1.73;;
48667;SDS011;34453;52.198;5.004;2023-08-08T05:07:05;2.13;;;1.00;;
48667;SDS011;34453;52.198;5.004;2023-08-08T05:09:31;4.53;;;1.13;;
48667;SDS011;34453;52.198;5.004;2023-08-08T05:11:56;10.02;;;1.30;;
48667;SDS011;34453;52.198;5.004;2023-08-08T05:14:22;2.33;;;1.15;;
48667;SDS011;34453;52.198;5.004;2023-08-08T05:16:47;3.72;;;1.30;;
48667;SDS011;34453;52.198;5.004;2023-08-08T05:19:13;4.47;;;1.27;;
48667;SDS011;34453;52.198;5.004;2023-08-08T05:21:38;2.92;;;0.90;;
48667;SDS011;34453;52.198;5.004;2023-08-08T05:24:04;3.40;;;1.10;;
48667;SDS011;34453;52.198;5.004;2023-08-08T05:26:29;5.97;;;1.30;;
48667;SDS011;34453;52.198;5.004;2023-08-08T05:28:55;2.80;;;1.00;;
48667;SDS011;34453;52.198;5.004;2023-08-08T05:31:20;4.53;;;1.23;;
48667;SDS011;34453;52.198;5.004;2023-08-08T05:33:48;9.93;;;1.17;;
48667;SDS011;34453;52.198;5.004;2023-08-08T05:36:14;3.25;;;1.48;;
48667;SDS011;34453;52.198;5.004;2023-08-08T05:38:39;1.85;;;1.10;;
48667;SDS011;34453;52.198;5.004;2023-08-08T05:41:06;3.78;;;1.08;;
48667;SDS011;34453;52.198;5.004;2023-08-08T05:43:31;4.28;;;1.10;;
48667;SDS011;34453;52.198;5.004;2023-08-08T05:45:57;3.17;;;1.08;;
48667;SDS011;34453;52.198;5.004;2023-08-08T05:48:22;6.07;;;0.93;;
48667;SDS011;34453;52.198;5.004;2023-08-08T05:50:47;1.83;;;0.95;;
48667;SDS011;34453;52.198;5.004;2023-08-08T05:53:13;1.42;;;1.02;;
48667;SDS011;34453;52.198;5.004;2023-08-08T05:55:40;1.92;;;0.80;;
48667;SDS011;34453;52.198;5.004;2023-08-08T05:58:07;2.17;;;1.00;;
48667;SDS011;34453;52.198;5.004;2023-08-08T06:00:32;8.63;;;1.38;;
48667;SDS011;34453;52.198;5.004;2023-08-08T06:02:57;5.35;;;1.05;;
48667;SDS011;34453;52.198;5.004;2023-08-08T06:05:23;5.45;;;1.25;;
48667;SDS011;34453;52.198;5.004;2023-08-08T06:07:49;5.97;;;2.15;;
48667;SDS011;34453;52.198;5.004;2023-08-08T06:10:15;2.22;;;1.45;;
48667;SDS011;34453;52.198;5.004;2023-08-08T06:12:40;4.47;;;1.63;;
48667;SDS011;34453;52.198;5.004;2023-08-08T06:15:06;6.10;;;1.20;;
48667;SDS011;34453;52.198;5.004;2023-08-08T06:17:32;11.13;;;1.60;;
48667;SDS011;34453;52.198;5.004;2023-08-08T06:19:57;5.22;;;1.80;;
48667;SDS011;34453;52.198;5.004;2023-08-08T06:22:23;6.28;;;1.35;;
48667;SDS011;34453;52.198;5.004;2023-08-08T06:24:49;4.80;;;0.73;;
48667;SDS011;34453;52.198;5.004;2023-08-08T06:27:14;2.20;;;1.25;;
48667;SDS011;34453;52.198;5.004;2023-08-08T06:29:40;5.70;;;1.00;;
48667;SDS011;34453;52.198;5.004;2023-08-08T06:32:06;8.70;;;1.05;;
48667;SDS011;34453;52.198;5.004;2023-08-08T06:34:31;6.93;;;1.25;;
48667;SDS011;34453;52.198;5.004;2023-08-08T06:36:57;2.55;;;0.88;;
48667;SDS011;34453;52.198;5.004;2023-08-08T06:39:22;4.40;;;0.82;;
48667;SDS011;34453;52.198;5.004;2023-08-08T06:41:48;3.50;;;0.88;;
48667;SDS011;34453;52.198;5.004;2023-08-08T06:44:13;1.80;;;0.52;;
48667;SDS011;34453;52.198;5.004;2023-08-08T06:46:39;1.48;;;0.80;;
48667;SDS011;34453;52.198;5.004;2023-08-08T06:49:04;4.65;;;1.00;;
48667;SDS011;34453;52.198;5.004;2023-08-08T06:51:32;5.18;;;0.82;;
48667;SDS011;34453;52.198;5.004;2023-08-08T06:53:57;4.30;;;0.70;;
48667;SDS011;34453;52.198;5.004;2023-08-08T06:56:22;2.25;;;0.60;;
48667;SDS011;34453;52.198;5.004;2023-08-08T06:58:48;1.92;;;0.75;;
48667;SDS011;34453;52.198;5.004;2023-08-08T07:01:13;5.63;;;1.23;;
48667;SDS011;34453;52.198;5.004;2023-08-08T07:03:39;4.15;;;0.80;;
48667;SDS011;34453;52.198;5.004;2023-08-08T07:06:05;3.58;;;0.75;;
48667;SDS011;34453;52.198;5.004;2023-08-08T07:08:31;6.38;;;0.82;;
48667;SDS011;34453;52.198;5.004;2023-08-08T07:10:57;5.88;;;0.80;;
48667;SDS011;34453;52.198;5.004;2023-08-08T07:13:23;2.13;;;0.93;;
48667;SDS011;34453;52.198;5.004;2023-08-08T07:15:48;2.60;;;0.57;;
48667;SDS011;34453;52.198;5.004;2023-08-08T07:18:14;0.93;;;0.60;;
48667;SDS011;34453;52.198;5.004;2023-08-08T07:20:40;1.55;;;0.60;;
48667;SDS011;34453;52.198;5.004;2023-08-08T07:23:06;1.40;;;0.50;;
48667;SDS011;34453;52.198;5.004;2023-08-08T07:25:32;2.15;;;1.10;;
48667;SDS011;34453;52.198;5.004;2023-08-08T07:27:57;1.88;;;0.85;;
48667;SDS011;34453;52.198;5.004;2023-08-08T07:30:23;5.93;;;0.68;;
48667;SDS011;34453;52.198;5.004;2023-08-08T07:32:49;5.53;;;0.75;;
48667;SDS011;34453;52.198;5.004;2023-08-08T07:35:14;3.65;;;1.02;;
48667;SDS011;34453;52.198;5.004;2023-08-08T07:37:40;1.40;;;0.40;;
48667;SDS011;34453;52.198;5.004;2023-08-08T07:40:19;2.83;;;0.50;;
48667;SDS011;34453;52.198;5.004;2023-08-08T07:42:47;3.97;;;0.80;;
48667;SDS011;34453;52.198;5.004;2023-08-08T07:45:13;1.98;;;0.50;;
48667;SDS011;34453;52.198;5.004;2023-08-08T07:47:39;6.55;;;0.65;;
48667;SDS011;34453;52.198;5.004;2023-08-08T07:50:05;8.60;;;1.00;;
48667;SDS011;34453;52.198;5.004;2023-08-08T07:52:33;0.63;;;0.45;;
48667;SDS011;34453;52.198;5.004;2023-08-08T07:55:03;3.50;;;0.57;;
48667;SDS011;34453;52.198;5.004;2023-08-08T07:57:29;2.20;;;0.60;;
48667;SDS011;34453;52.198;5.004;2023-08-08T08:00:06;3.33;;;0.60;;
48667;SDS011;34453;52.198;5.004;2023-08-08T08:02:37;2.92;;;0.65;;
48667;SDS011;34453;52.198;5.004;2023-08-08T08:05:12;3.30;;;0.68;;
48667;SDS011;34453;52.198;5.004;2023-08-08T08:07:38;3.50;;;0.75;;
48667;SDS011;34453;52.198;5.004;2023-08-08T08:10:05;3.22;;;0.60;;
48667;SDS011;34453;52.198;5.004;2023-08-08T08:12:33;1.10;;;0.60;;
48667;SDS011;34453;52.198;5.004;2023-08-08T08:15:00;0.93;;;0.50;;
48667;SDS011;34453;52.198;5.004;2023-08-08T08:17:27;1.25;;;0.50;;
48667;SDS011;34453;52.198;5.004;2023-08-08T08:19:53;0.90;;;0.40;;
48667;SDS011;34453;52.198;5.004;2023-08-08T08:22:19;1.42;;;0.40;;
48667;SDS011;34453;52.198;5.004;2023-08-08T08:24:44;0.90;;;0.30;;
48667;SDS011;34453;52.198;5.004;2023-08-08T08:27:11;4.43;;;0.80;;
48667;SDS011;34453;52.198;5.004;2023-08-08T08:29:37;1.13;;;0.40;;
48667;SDS011;34453;52.198;5.004;2023-08-08T08:32:02;1.45;;;0.80;;
48667;SDS011;34453;52.198;5.004;2023-08-08T08:34:28;2.10;;;0.60;;
48667;SDS011;34453;52.198;5.004;2023-08-08T08:36:53;4.22;;;0.75;;
48667;SDS011;34453;52.198;5.004;2023-08-08T08:39:19;1.60;;;0.70;;
48667;SDS011;34453;52.198;5.004;2023-08-08T08:41:45;1.10;;;0.30;;
48667;SDS011;34453;52.198;5.004;2023-08-08T08:44:14;0.50;;;0.50;;
48667;SDS011;34453;52.198;5.004;2023-08-08T08:46:41;2.30;;;0.95;;
48667;SDS011;34453;52.198;5.004;2023-08-08T08:49:07;2.40;;;0.90;;
48667;SDS011;34453;52.198;5.004;2023-08-08T08:51:35;5.10;;;0.60;;
48667;SDS011;34453;52.198;5.004;2023-08-08T08:54:01;1.75;;;0.30;;
48667;SDS011;34453;52.198;5.004;2023-08-08T08:56:27;0.70;;;0.47;;
48667;SDS011;34453;52.198;5.004;2023-08-08T08:58:53;1.58;;;0.68;;
48667;SDS011;34453;52.198;5.004;2023-08-08T09:01:19;1.48;;;0.75;;
48667;SDS011;34453;52.198;5.004;2023-08-08T09:03:47;2.35;;;1.60;;
48667;SDS011;34453;52.198;5.004;2023-08-08T09:06:13;1.95;;;0.43;;
48667;SDS011;34453;52.198;5.004;2023-08-08T09:08:41;2.22;;;0.50;;
48667;SDS011;34453;52.198;5.004;2023-08-08T09:11:06;0.77;;;0.75;;
48667;SDS011;34453;52.198;5.004;2023-08-08T09:13:38;4.25;;;0.80;;
48667;SDS011;34453;52.198;5.004;2023-08-08T09:16:08;2.63;;;0.95;;
48667;SDS011;34453;52.198;5.004;2023-08-08T09:18:34;0.70;;;0.50;;
48667;SDS011;34453;52.198;5.004;2023-08-08T09:21:03;3.28;;;0.70;;
48667;SDS011;34453;52.198;5.004;2023-08-08T09:23:28;9.10;;;0.88;;
48667;SDS011;34453;52.198;5.004;2023-08-08T09:25:54;2.67;;;0.80;;
48667;SDS011;34453;52.198;5.004;2023-08-08T09:28:19;1.88;;;0.85;;
48667;SDS011;34453;52.198;5.004;2023-08-08T09:30:45;1.50;;;1.38;;
48667;SDS011;34453;52.198;5.004;2023-08-08T09:33:11;1.17;;;0.50;;
48667;SDS011;34453;52.198;5.004;2023-08-08T09:35:40;1.05;;;0.38;;
48667;SDS011;34453;52.198;5.004;2023-08-08T09:38:06;2.05;;;0.30;;
48667;SDS011;34453;52.198;5.004;2023-08-08T09:40:32;1.88;;;0.50;;
48667;SDS011;34453;52.198;5.004;2023-08-08T09:42:58;2.60;;;0.60;;
48667;SDS011;34453;52.198;5.004;2023-08-08T09:45:23;3.38;;;0.95;;
48667;SDS011;34453;52.198;5.004;2023-08-08T09:47:49;1.90;;;0.40;;
48667;SDS011;34453;52.198;5.004;2023-08-08T09:50:18;1.48;;;0.43;;
48667;SDS011;34453;52.198;5.004;2023-08-08T09:52:45;1.27;;;0.75;;
48667;SDS011;34453;52.198;5.004;2023-08-08T09:55:11;1.55;;;0.45;;
48667;SDS011;34453;52.198;5.004;2023-08-08T09:57:40;2.17;;;0.43;;
48667;SDS011;34453;52.198;5.004;2023-08-08T10:00:07;1.20;;;0.50;;
48667;SDS011;34453;52.198;5.004;2023-08-08T10:02:41;0.75;;;0.60;;
48667;SDS011;34453;52.198;5.004;2023-08-08T10:05:08;4.22;;;0.40;;
48667;SDS011;34453;52.198;5.004;2023-08-08T10:07:35;5.30;;;2.05;;
48667;SDS011;34453;52.198;5.004;2023-08-08T10:10:01;1.70;;;0.30;;
48667;SDS011;34453;52.198;5.004;2023-08-08T10:12:26;3.15;;;0.60;;
48667;SDS011;34453;52.198;5.004;2023-08-08T10:14:52;0.70;;;0.50;;
48667;SDS011;34453;52.198;5.004;2023-08-08T10:17:18;7.47;;;1.05;;
48667;SDS011;34453;52.198;5.004;2023-08-08T10:19:51;3.38;;;0.55;;
48667;SDS011;34453;52.198;5.004;2023-08-08T10:22:20;0.50;;;0.32;;
48667;SDS011;34453;52.198;5.004;2023-08-08T10:24:50;6.38;;;0.52;;
48667;SDS011;34453;52.198;5.004;2023-08-08T10:27:27;1.02;;;0.43;;
48667;SDS011;34453;52.198;5.004;2023-08-08T10:30:00;0.90;;;0.40;;
48667;SDS011;34453;52.198;5.004;2023-08-08T10:32:42;1.33;;;0.50;;
48667;SDS011;34453;52.198;5.004;2023-08-08T10:35:09;1.95;;;0.50;;
48667;SDS011;34453;52.198;5.004;2023-08-08T10:37:36;4.63;;;0.63;;
48667;SDS011;34453;52.198;5.004;2023-08-08T10:40:03;4.28;;;0.70;;
48667;SDS011;34453;52.198;5.004;2023-08-08T10:42:32;6.90;;;0.60;;
48667;SDS011;34453;52.198;5.004;2023-08-08T10:45:08;2.20;;;0.70;;
48667;SDS011;34453;52.198;5.004;2023-08-08T10:47:36;1.10;;;0.32;;
48667;SDS011;34453;52.198;5.004;2023-08-08T10:58:10;0.68;;;0.50;;
48667;SDS011;34453;52.198;5.004;2023-08-08T11:00:40;1.65;;;0.85;;
48667;SDS011;34453;52.198;5.004;2023-08-08T11:03:07;0.50;;;0.50;;
48667;SDS011;34453;52.198;5.004;2023-08-08T11:05:34;7.70;;;0.80;;
48667;SDS011;34453;52.198;5.004;2023-08-08T11:08:03;1.63;;;0.70;;
48667;SDS011;34453;52.198;5.004;2023-08-08T11:10:34;1.02;;;0.52;;
48667;SDS011;34453;52.198;5.004;2023-08-08T11:13:01;2.20;;;0.70;;
48667;SDS011;34453;52.198;5.004;2023-08-08T11:15:28;1.60;;;0.50;;
48667;SDS011;34453;52.198;5.004;2023-08-08T11:17:56;3.53;;;0.40;;
48667;SDS011;34453;52.198;5.004;2023-08-08T11:20:23;0.47;;;0.40;;
48667;SDS011;34453;52.198;5.004;2023-08-08T11:22:52;2.40;;;0.50;;
48667;SDS011;34453;52.198;5.004;2023-08-08T11:25:21;2.58;;;0.40;;
48667;SDS011;34453;52.198;5.004;2023-08-08T11:27:48;1.63;;;0.60;;
48667;SDS011;34453;52.198;5.004;2023-08-08T11:30:16;2.85;;;1.42;;
48667;SDS011;34453;52.198;5.004;2023-08-08T11:32:42;1.27;;;0.80;;
48667;SDS011;34453;52.198;5.004;2023-08-08T11:35:08;0.95;;;0.50;;
48667;SDS011;34453;52.198;5.004;2023-08-08T11:37:34;1.35;;;0.52;;
48667;SDS011;34453;52.198;5.004;2023-08-08T11:40:00;2.65;;;0.40;;
48667;SDS011;34453;52.198;5.004;2023-08-08T11:42:26;1.77;;;0.40;;
48667;SDS011;34453;52.198;5.004;2023-08-08T11:44:52;0.52;;;0.52;;
48667;SDS011;34453;52.198;5.004;2023-08-08T11:47:17;1.17;;;0.50;;
48667;SDS011;34453;52.198;5.004;2023-08-08T11:52:17;1.42;;;0.68;;
48667;SDS011;34453;52.198;5.004;2023-08-08T11:54:43;1.52;;;0.45;;
48667;SDS011;34453;52.198;5.004;2023-08-08T11:57:09;1.38;;;0.50;;
48667;SDS011;34453;52.198;5.004;2023-08-08T11:59:35;0.80;;;0.60;;
48667;SDS011;34453;52.198;5.004;2023-08-08T12:02:01;2.67;;;0.52;;
48667;SDS011;34453;52.198;5.004;2023-08-08T12:04:26;2.33;;;0.90;;
48667;SDS011;34453;52.198;5.004;2023-08-08T12:07:00;3.15;;;0.70;;
48667;SDS011;34453;52.198;5.004;2023-08-08T12:09:31;3.65;;;0.80;;
48667;SDS011;34453;52.198;5.004;2023-08-08T12:12:00;3.58;;;1.00;;
48667;SDS011;34453;52.198;5.004;2023-08-08T12:14:26;6.15;;;0.52;;
48667;SDS011;34453;52.198;5.004;2023-08-08T12:16:53;1.88;;;0.80;;
48667;SDS011;34453;52.198;5.004;2023-08-08T12:19:22;1.33;;;1.23;;
48667;SDS011;34453;52.198;5.004;2023-08-08T12:21:50;2.78;;;0.98;;
48667;SDS011;34453;52.198;5.004;2023-08-08T12:24:16;1.88;;;0.60;;
48667;SDS011;34453;52.198;5.004;2023-08-08T12:26:42;2.97;;;0.65;;
48667;SDS011;34453;52.198;5.004;2023-08-08T12:29:08;2.92;;;0.70;;
48667;SDS011;34453;52.198;5.004;2023-08-08T12:31:34;4.13;;;0.63;;
48667;SDS011;34453;52.198;5.004;2023-08-08T12:34:00;2.78;;;0.40;;
48667;SDS011;34453;52.198;5.004;2023-08-08T12:36:25;1.33;;;0.45;;
48667;SDS011;34453;52.198;5.004;2023-08-08T12:38:51;0.80;;;0.60;;
48667;SDS011;34453;52.198;5.004;2023-08-08T12:41:16;2.38;;;0.68;;
48667;SDS011;34453;52.198;5.004;2023-08-08T12:43:42;3.05;;;0.52;;
48667;SDS011;34453;52.198;5.004;2023-08-08T12:46:07;5.30;;;0.68;;
48667;SDS011;34453;52.198;5.004;2023-08-08T12:48:34;1.95;;;0.70;;
48667;SDS011;34453;52.198;5.004;2023-08-08T12:50:59;1.67;;;0.35;;
48667;SDS011;34453;52.198;5.004;2023-08-08T12:53:25;1.05;;;0.50;;
48667;SDS011;34453;52.198;5.004;2023-08-08T12:55:51;3.22;;;0.60;;
48667;SDS011;34453;52.198;5.004;2023-08-08T12:58:16;2.35;;;0.70;;
48667;SDS011;34453;52.198;5.004;2023-08-08T13:00:42;3.50;;;0.70;;
48667;SDS011;34453;52.198;5.004;2023-08-08T13:03:08;3.53;;;0.60;;
48667;SDS011;34453;52.198;5.004;2023-08-08T13:05:34;0.80;;;0.60;;
48667;SDS011;34453;52.198;5.004;2023-08-08T13:07:59;5.07;;;0.60;;
48667;SDS011;34453;52.198;5.004;2023-08-08T13:10:25;3.40;;;0.57;;
48667;SDS011;34453;52.198;5.004;2023-08-08T13:12:50;1.55;;;0.50;;
48667;SDS011;34453;52.198;5.004;2023-08-08T13:15:16;2.05;;;0.65;;
48667;SDS011;34453;52.198;5.004;2023-08-08T13:17:41;1.05;;;0.60;;
48667;SDS011;34453;52.198;5.004;2023-08-08T13:20:07;4.00;;;0.60;;
48667;SDS011;34453;52.198;5.004;2023-08-08T13:22:34;5.10;;;0.90;;
48667;SDS011;34453;52.198;5.004;2023-08-08T13:24:59;0.60;;;0.60;;
48667;SDS011;34453;52.198;5.004;2023-08-08T13:27:25;2.08;;;0.60;;
48667;SDS011;34453;52.198;5.004;2023-08-08T13:29:50;3.90;;;2.03;;
48667;SDS011;34453;52.198;5.004;2023-08-08T13:32:16;5.18;;;0.80;;
48667;SDS011;34453;52.198;5.004;2023-08-08T13:34:41;2.85;;;1.25;;
48667;SDS011;34453;52.198;5.004;2023-08-08T13:37:06;0.73;;;0.43;;
48667;SDS011;34453;52.198;5.004;2023-08-08T13:39:32;1.02;;;0.57;;
48667;SDS011;34453;52.198;5.004;2023-08-08T13:41:57;2.00;;;1.35;;
48667;SDS011;34453;52.198;5.004;2023-08-08T13:44:23;6.55;;;0.90;;
48667;SDS011;34453;52.198;5.004;2023-08-08T13:46:48;1.45;;;0.70;;
48667;SDS011;34453;52.198;5.004;2023-08-08T13:49:14;3.13;;;0.95;;
48667;SDS011;34453;52.198;5.004;2023-08-08T13:51:40;7.53;;;2.70;;
48667;SDS011;34453;52.198;5.004;2023-08-08T13:54:06;1.40;;;0.75;;
48667;SDS011;34453;52.198;5.004;2023-08-08T13:56:31;7.80;;;1.20;;
48667;SDS011;34453;52.198;5.004;2023-08-08T13:58:57;2.67;;;0.85;;
48667;SDS011;34453;52.198;5.004;2023-08-08T14:01:22;2.20;;;0.60;;
48667;SDS011;34453;52.198;5.004;2023-08-08T14:03:48;3.33;;;0.77;;
48667;SDS011;34453;52.198;5.004;2023-08-08T14:06:13;9.77;;;0.80;;
48667;SDS011;34453;52.198;5.004;2023-08-08T14:08:39;4.40;;;0.70;;
48667;SDS011;34453;52.198;5.004;2023-08-08T14:11:05;1.15;;;0.68;;
48667;SDS011;34453;52.198;5.004;2023-08-08T14:13:30;3.50;;;1.90;;
48667;SDS011;34453;52.198;5.004;2023-08-08T14:15:56;2.75;;;0.75;;
48667;SDS011;34453;52.198;5.004;2023-08-08T14:18:21;4.95;;;1.00;;
48667;SDS011;34453;52.198;5.004;2023-08-08T14:20:46;2.92;;;0.95;;
48667;SDS011;34453;52.198;5.004;2023-08-08T14:23:12;1.40;;;0.68;;
48667;SDS011;34453;52.198;5.004;2023-08-08T14:25:37;4.18;;;1.83;;
48667;SDS011;34453;52.198;5.004;2023-08-08T14:28:03;0.80;;;0.70;;
48667;SDS011;34453;52.198;5.004;2023-08-08T14:30:29;2.88;;;1.02;;
48667;SDS011;34453;52.198;5.004;2023-08-08T14:32:55;2.17;;;0.52;;
48667;SDS011;34453;52.198;5.004;2023-08-08T14:35:21;2.22;;;0.90;;
48667;SDS011;34453;52.198;5.004;2023-08-08T14:37:47;1.58;;;0.82;;
48667;SDS011;34453;52.198;5.004;2023-08-08T14:40:12;1.15;;;0.63;;
48667;SDS011;34453;52.198;5.004;2023-08-08T14:42:38;1.48;;;1.38;;
48667;SDS011;34453;52.198;5.004;2023-08-08T14:45:03;0.75;;;0.60;;
48667;SDS011;34453;52.198;5.004;2023-08-08T14:47:30;3.38;;;1.45;;
48667;SDS011;34453;52.198;5.004;2023-08-08T14:49:56;2.58;;;0.80;;
48667;SDS011;34453;52.198;5.004;2023-08-08T14:52:21;1.27;;;0.70;;